Time;durP1;ratioP1;P1;durP2;ratioP2;P2;SDS_P1;SDS_P2;PMS_P1;PMS_P2;Temp;Humidity;BMP_temperature;BMP_pressure;BME280_temperature;BME280_humidity;BME280_pressure;Samples;Min_cycle;Max_cycle;Signal;HPM_P1;HPM_P2
2023/12/22 00:02:06;;;;;;;5.10;1.10;;;;;;;;;;5038559;28;20289;-76
2023/12/22 00:04:36;;;;;;;6.82;1.40;;;;;;;;;;5037993;28;20245;-76
2023/12/22 00:07:06;;;;;;;8.98;1.30;;;;;;;;;;5048361;28;20287;-78
2023/12/22 00:09:35;;;;;;;5.38;1.10;;;;;;;;;;5038936;28;20221;-77
2023/12/22 00:12:05;;;;;;;8.60;1.35;;;;;;;;;;5050519;28;20208;-75
2023/12/22 00:14:37;;;;;;;4.97;1.10;;;;;;;;;;5052139;28;20284;-75
2023/12/22 00:17:10;;;;;;;8.80;1.30;;;;;;;;;;5044094;28;20217;-76
2023/12/22 00:19:40;;;;;;;9.00;1.20;;;;;;;;;;5053618;28;20200;-76
2023/12/22 00:22:10;;;;;;;6.20;1.30;;;;;;;;;;5050238;28;20206;-75
2023/12/22 00:24:45;;;;;;;10.80;1.30;;;;;;;;;;5049133;28;20229;-77
2023/12/22 00:27:16;;;;;;;6.00;1.33;;;;;;;;;;5045156;28;20189;-80
2023/12/22 00:29:50;;;;;;;4.50;1.05;;;;;;;;;;5045448;28;20213;-81
2023/12/22 00:32:20;;;;;;;3.17;0.90;;;;;;;;;;5047009;28;20695;-78
2023/12/22 00:34:50;;;;;;;7.80;1.00;;;;;;;;;;5047032;28;20208;-78
2023/12/22 00:37:20;;;;;;;6.30;1.13;;;;;;;;;;5041171;28;20197;-81
2023/12/22 00:39:50;;;;;;;8.43;1.20;;;;;;;;;;5048125;28;20205;-79
2023/12/22 00:42:20;;;;;;;8.02;1.20;;;;;;;;;;5043633;28;20197;-74
2023/12/22 00:44:52;;;;;;;4.95;1.10;;;;;;;;;;5052203;28;20226;-73
2023/12/22 00:47:21;;;;;;;5.32;1.10;;;;;;;;;;5047847;28;20190;-78
2023/12/22 00:49:52;;;;;;;4.00;0.90;;;;;;;;;;5043946;28;20197;-77
2023/12/22 00:52:23;;;;;;;7.97;1.27;;;;;;;;;;5045012;28;20197;-77
2023/12/22 00:54:53;;;;;;;5.35;1.15;;;;;;;;;;5046064;28;20304;-81
2023/12/22 00:57:23;;;;;;;6.40;1.20;;;;;;;;;;5048024;28;20201;-80
2023/12/22 00:59:55;;;;;;;6.22;1.10;;;;;;;;;;5050384;28;20737;-76
2023/12/22 01:02:25;;;;;;;7.65;1.33;;;;;;;;;;5053162;28;20549;-77
2023/12/22 01:04:54;;;;;;;4.28;1.00;;;;;;;;;;5046043;28;20240;-78
2023/12/22 01:07:25;;;;;;;6.68;1.15;;;;;;;;;;5051074;28;20209;-75
2023/12/22 01:09:55;;;;;;;8.35;1.30;;;;;;;;;;5049035;28;20202;-81
2023/12/22 01:12:25;;;;;;;7.47;1.20;;;;;;;;;;5045263;28;20279;-77
2023/12/22 01:14:58;;;;;;;6.05;1.08;;;;;;;;;;5048887;28;20258;-79
2023/12/22 01:17:28;;;;;;;7.18;1.30;;;;;;;;;;5045641;28;20228;-79
2023/12/22 01:19:58;;;;;;;5.07;1.25;;;;;;;;;;5041615;28;20563;-78
2023/12/22 01:22:28;;;;;;;5.93;1.10;;;;;;;;;;5042555;28;20198;-77
2023/12/22 01:24:58;;;;;;;7.30;1.20;;;;;;;;;;5047668;28;20225;-82
2023/12/22 01:27:28;;;;;;;7.13;1.23;;;;;;;;;;5047016;28;20255;-79
2023/12/22 01:30:00;;;;;;;4.15;0.90;;;;;;;;;;5046047;28;20207;-78
2023/12/22 01:32:34;;;;;;;4.97;1.00;;;;;;;;;;5047434;28;20198;-78
2023/12/22 01:35:09;;;;;;;5.00;0.82;;;;;;;;;;5044401;28;20235;-78
2023/12/22 01:37:39;;;;;;;6.25;0.90;;;;;;;;;;5047290;28;20201;-77
2023/12/22 01:40:09;;;;;;;8.57;0.93;;;;;;;;;;5048253;28;20633;-80
2023/12/22 01:42:40;;;;;;;7.00;1.20;;;;;;;;;;5040354;28;20197;-76
2023/12/22 01:45:14;;;;;;;4.50;1.10;;;;;;;;;;5006678;23;20236;-81
2023/12/22 01:47:44;;;;;;;5.07;1.20;;;;;;;;;;4980500;28;20576;-81
2023/12/22 01:50:17;;;;;;;5.10;1.10;;;;;;;;;;4983415;28;20581;-78
2023/12/22 01:52:47;;;;;;;3.92;1.00;;;;;;;;;;4992594;28;20212;-77
2023/12/22 01:55:18;;;;;;;5.53;0.60;;;;;;;;;;4994294;28;20211;-79
2023/12/22 01:57:49;;;;;;;5.45;1.10;;;;;;;;;;4993585;28;20230;-77
2023/12/22 02:00:22;;;;;;;4.43;0.90;;;;;;;;;;4990884;28;20592;-77
2023/12/22 02:02:52;;;;;;;7.68;1.20;;;;;;;;;;4994272;28;20227;-77
2023/12/22 02:05:22;;;;;;;7.88;1.05;;;;;;;;;;4994060;28;20761;-77
2023/12/22 02:07:52;;;;;;;4.60;0.98;;;;;;;;;;4994018;28;20207;-80
2023/12/22 02:10:22;;;;;;;5.55;1.05;;;;;;;;;;4994143;28;20247;-79
2023/12/22 02:12:52;;;;;;;5.90;0.93;;;;;;;;;;4992402;28;20625;-77
2023/12/22 02:15:24;;;;;;;5.00;0.85;;;;;;;;;;4993697;28;20234;-78
2023/12/22 02:17:57;;;;;;;5.00;0.75;;;;;;;;;;4993486;28;20202;-78
2023/12/22 02:20:27;;;;;;;3.75;0.75;;;;;;;;;;4993862;28;20198;-75
2023/12/22 02:22:59;;;;;;;6.50;0.90;;;;;;;;;;4993620;28;20278;-77
2023/12/22 02:25:29;;;;;;;4.72;1.00;;;;;;;;;;4993224;28;20219;-79
2023/12/22 02:28:01;;;;;;;4.90;1.00;;;;;;;;;;4987664;28;20210;-77
2023/12/22 02:30:34;;;;;;;5.40;0.90;;;;;;;;;;4982961;28;20279;-78
2023/12/22 02:33:06;;;;;;;3.80;1.10;;;;;;;;;;4993642;28;20198;-78
2023/12/22 02:35:41;;;;;;;5.45;0.80;;;;;;;;;;4993852;28;20195;-78
2023/12/22 02:38:14;;;;;;;3.78;0.80;;;;;;;;;;4991426;28;20282;-77
2023/12/22 02:40:44;;;;;;;5.93;0.80;;;;;;;;;;4987180;28;20195;-77
2023/12/22 02:43:14;;;;;;;4.22;0.70;;;;;;;;;;4999551;28;20218;-78
2023/12/22 02:45:44;;;;;;;4.15;0.70;;;;;;;;;;5031932;28;20688;-76
2023/12/22 02:48:15;;;;;;;4.53;0.70;;;;;;;;;;5030822;28;20198;-77
2023/12/22 02:50:45;;;;;;;4.10;0.63;;;;;;;;;;5030967;28;20601;-77
2023/12/22 02:53:17;;;;;;;3.55;0.60;;;;;;;;;;5031764;28;20194;-77
2023/12/22 02:55:47;;;;;;;3.42;0.70;;;;;;;;;;5032364;28;20198;-77
2023/12/22 02:58:17;;;;;;;7.40;1.10;;;;;;;;;;5030327;28;20256;-78
2023/12/22 03:00:48;;;;;;;6.05;0.77;;;;;;;;;;5028623;28;20209;-79
2023/12/22 03:03:18;;;;;;;5.03;0.80;;;;;;;;;;5032254;28;20297;-79
2023/12/22 03:05:47;;;;;;;3.42;0.73;;;;;;;;;;5022585;28;20232;-77
2023/12/22 03:08:19;;;;;;;5.28;0.88;;;;;;;;;;5032688;28;20199;-78
2023/12/22 03:10:49;;;;;;;3.45;0.90;;;;;;;;;;5016296;28;20202;-78
2023/12/22 03:13:19;;;;;;;3.90;0.85;;;;;;;;;;5018980;28;20195;-77
2023/12/22 03:15:49;;;;;;;6.95;1.25;;;;;;;;;;5032656;28;20241;-79
2023/12/22 03:18:19;;;;;;;5.47;0.90;;;;;;;;;;5030639;28;20203;-79
2023/12/22 03:20:49;;;;;;;6.97;0.80;;;;;;;;;;5030693;28;20208;-77
2023/12/22 03:23:21;;;;;;;3.20;0.68;;;;;;;;;;5031268;28;20653;-77
2023/12/22 03:25:51;;;;;;;2.25;0.60;;;;;;;;;;5029448;28;20585;-80
2023/12/22 03:28:21;;;;;;;6.15;1.00;;;;;;;;;;5031935;28;20563;-78
2023/12/22 03:30:51;;;;;;;3.47;0.70;;;;;;;;;;5030147;28;20194;-77
2023/12/22 03:33:20;;;;;;;5.78;0.95;;;;;;;;;;5031205;28;20795;-79
2023/12/22 03:35:50;;;;;;;5.15;0.98;;;;;;;;;;5030981;28;20205;-80
2023/12/22 03:38:22;;;;;;;2.45;0.80;;;;;;;;;;5031779;28;20210;-80
2023/12/22 03:40:52;;;;;;;4.95;1.00;;;;;;;;;;5032167;28;20201;-81
2023/12/22 03:43:22;;;;;;;5.20;0.90;;;;;;;;;;5024909;28;20214;-82
2023/12/22 03:45:52;;;;;;;3.25;0.80;;;;;;;;;;5032204;28;20222;-80
2023/12/22 03:48:22;;;;;;;3.97;0.70;;;;;;;;;;5031452;28;20202;-79
2023/12/22 03:50:52;;;;;;;3.97;0.70;;;;;;;;;;5030351;28;20198;-80
2023/12/22 03:53:24;;;;;;;7.13;0.98;;;;;;;;;;5031409;28;20194;-79
2023/12/22 03:55:54;;;;;;;2.28;0.50;;;;;;;;;;5031830;28;20269;-79
2023/12/22 03:58:24;;;;;;;4.53;0.70;;;;;;;;;;5031071;28;20650;-76
2023/12/22 04:00:54;;;;;;;6.75;0.98;;;;;;;;;;5030708;28;20729;-79
2023/12/22 04:03:24;;;;;;;4.88;0.88;;;;;;;;;;5022654;28;20285;-79
2023/12/22 04:05:54;;;;;;;3.10;0.57;;;;;;;;;;5032229;28;20257;-79
2023/12/22 04:08:26;;;;;;;2.72;0.60;;;;;;;;;;5031483;28;20197;-81
2023/12/22 04:10:56;;;;;;;6.30;1.10;;;;;;;;;;5013318;28;20278;-82
2023/12/22 04:13:26;;;;;;;4.00;0.80;;;;;;;;;;5024637;28;20198;-80
2023/12/22 04:15:56;;;;;;;3.55;0.85;;;;;;;;;;5027666;28;20206;-80
2023/12/22 04:18:26;;;;;;;3.42;0.90;;;;;;;;;;5030091;28;20200;-80
2023/12/22 04:20:56;;;;;;;7.53;1.05;;;;;;;;;;5035179;28;20199;-78
2023/12/22 04:23:27;;;;;;;4.03;0.70;;;;;;;;;;5030458;28;20198;-79
2023/12/22 04:25:58;;;;;;;4.35;0.70;;;;;;;;;;5017155;28;20304;-80
2023/12/22 04:28:28;;;;;;;8.10;1.00;;;;;;;;;;5033791;28;20700;-80
2023/12/22 04:30:58;;;;;;;5.00;0.95;;;;;;;;;;5032672;28;20257;-80
2023/12/22 04:33:28;;;;;;;7.03;0.90;;;;;;;;;;5023935;28;20194;-82
2023/12/22 04:35:58;;;;;;;7.43;0.98;;;;;;;;;;5035083;28;20217;-80
2023/12/22 04:38:30;;;;;;;5.25;1.00;;;;;;;;;;5034411;28;20194;-80
2023/12/22 04:41:03;;;;;;;4.45;0.90;;;;;;;;;;5033828;28;20610;-79
2023/12/22 04:43:33;;;;;;;4.22;0.90;;;;;;;;;;5018883;28;20249;-80
2023/12/22 04:46:03;;;;;;;7.28;0.98;;;;;;;;;;5024991;28;20594;-78
2023/12/22 04:48:33;;;;;;;4.35;0.95;;;;;;;;;;5030209;28;20673;-81
2023/12/22 04:51:03;;;;;;;2.67;0.60;;;;;;;;;;5030599;28;20217;-80
2023/12/22 04:53:35;;;;;;;5.00;0.98;;;;;;;;;;5030906;28;20553;-80
2023/12/22 04:56:04;;;;;;;11.75;1.10;;;;;;;;;;5033789;28;20209;-82
2023/12/22 04:58:34;;;;;;;7.95;1.17;;;;;;;;;;5029364;28;20658;-79
2023/12/22 05:01:07;;;;;;;6.05;0.85;;;;;;;;;;5032191;28;20198;-80
2023/12/22 05:03:37;;;;;;;9.95;1.08;;;;;;;;;;5024669;28;20198;-78
2023/12/22 05:06:07;;;;;;;6.63;1.05;;;;;;;;;;5027827;28;20743;-77
2023/12/22 05:08:39;;;;;;;10.50;1.15;;;;;;;;;;5034531;28;20203;-77
2023/12/22 05:11:09;;;;;;;11.32;1.70;;;;;;;;;;5033529;28;20190;-78
2023/12/22 05:13:40;;;;;;;6.85;1.23;;;;;;;;;;5034208;28;20203;-78
2023/12/22 05:16:10;;;;;;;5.93;0.95;;;;;;;;;;5034155;28;20190;-77
2023/12/22 05:18:40;;;;;;;7.55;1.42;;;;;;;;;;5034040;28;20196;-79
2023/12/22 05:21:10;;;;;;;6.22;1.30;;;;;;;;;;5033492;28;20205;-78
2023/12/22 05:23:41;;;;;;;7.80;1.48;;;;;;;;;;5032923;28;20285;-80
2023/12/22 05:26:11;;;;;;;4.63;1.25;;;;;;;;;;5032193;28;20305;-79
2023/12/22 05:28:41;;;;;;;5.57;1.00;;;;;;;;;;5031963;28;20198;-78
2023/12/22 05:31:11;;;;;;;6.47;1.08;;;;;;;;;;5033597;28;20570;-78
2023/12/22 05:33:41;;;;;;;4.13;0.90;;;;;;;;;;5033366;28;20194;-79
2023/12/22 05:36:11;;;;;;;8.88;1.20;;;;;;;;;;5029090;28;20629;-79
2023/12/22 05:38:43;;;;;;;6.38;0.82;;;;;;;;;;5031590;28;20198;-77
2023/12/22 05:41:13;;;;;;;3.42;0.85;;;;;;;;;;5032147;28;20641;-78
2023/12/22 05:43:43;;;;;;;9.10;1.65;;;;;;;;;;5033326;28;20593;-79
2023/12/22 05:46:13;;;;;;;4.32;0.93;;;;;;;;;;5028524;28;20264;-78
2023/12/22 05:48:44;;;;;;;5.97;1.33;;;;;;;;;;5032869;28;20198;-78
2023/12/22 05:51:14;;;;;;;6.05;1.27;;;;;;;;;;5031073;28;20244;-82
2023/12/22 05:53:46;;;;;;;5.05;0.98;;;;;;;;;;5030548;28;20186;-80
2023/12/22 05:56:23;;;;;;;4.63;0.90;;;;;;;;;;5033463;28;20190;-80
2023/12/22 05:58:52;;;;;;;5.47;1.00;;;;;;;;;;5033792;28;20213;-80
2023/12/22 06:01:22;;;;;;;5.97;1.27;;;;;;;;;;5031722;28;20211;-81
2023/12/22 06:03:54;;;;;;;6.90;1.10;;;;;;;;;;5023256;28;20198;-81
2023/12/22 06:06:24;;;;;;;8.38;3.60;;;;;;;;;;5033168;28;20249;-82
2023/12/22 06:08:56;;;;;;;6.22;1.20;;;;;;;;;;5028150;28;20646;-81
2023/12/22 06:11:26;;;;;;;16.55;7.93;;;;;;;;;;5032847;28;20190;-81
2023/12/22 06:13:56;;;;;;;7.53;1.05;;;;;;;;;;5033263;28;20202;-80
2023/12/22 06:16:26;;;;;;;5.57;1.40;;;;;;;;;;5033506;28;20206;-80
2023/12/22 06:18:56;;;;;;;8.32;1.08;;;;;;;;;;5033554;28;20206;-79
2023/12/22 06:21:26;;;;;;;4.95;1.10;;;;;;;;;;5014454;28;20249;-77
2023/12/22 06:23:58;;;;;;;5.07;1.08;;;;;;;;;;5032726;28;20220;-79
2023/12/22 06:26:28;;;;;;;7.43;1.20;;;;;;;;;;5032770;28;20569;-80
2023/12/22 06:28:58;;;;;;;4.65;0.80;;;;;;;;;;5026041;28;20198;-80
2023/12/22 06:31:30;;;;;;;8.65;1.48;;;;;;;;;;5032348;28;20198;-79
2023/12/22 06:34:02;;;;;;;9.00;1.15;;;;;;;;;;5013463;28;20201;-80
2023/12/22 06:36:32;;;;;;;6.68;1.17;;;;;;;;;;5027899;28;20190;-78
2023/12/22 06:39:04;;;;;;;7.13;1.25;;;;;;;;;;5032439;28;20654;-79
2023/12/22 06:41:34;;;;;;;9.60;1.35;;;;;;;;;;5032398;28;20195;-79
2023/12/22 06:44:04;;;;;;;7.95;1.10;;;;;;;;;;5029923;28;20594;-80
2023/12/22 06:46:34;;;;;;;6.43;1.10;;;;;;;;;;5025668;28;20233;-80
2023/12/22 06:49:04;;;;;;;7.68;1.08;;;;;;;;;;5030017;28;20657;-80
2023/12/22 06:51:35;;;;;;;8.43;1.15;;;;;;;;;;5030760;28;20607;-80
2023/12/22 06:54:07;;;;;;;5.60;1.27;;;;;;;;;;5030370;28;20182;-79
2023/12/22 06:56:38;;;;;;;4.65;0.80;;;;;;;;;;5032164;28;20190;-79
2023/12/22 06:59:07;;;;;;;4.85;1.00;;;;;;;;;;5031349;28;20198;-78
2023/12/22 07:01:38;;;;;;;5.50;0.98;;;;;;;;;;5030725;28;20190;-80
2023/12/22 07:04:08;;;;;;;6.55;1.02;;;;;;;;;;5031124;28;20206;-80
2023/12/22 07:06:38;;;;;;;6.50;1.08;;;;;;;;;;5030308;28;20218;-79
2023/12/22 07:09:37;;;;;;;6.00;0.80;;;;;;;;;;5032383;28;20202;-81
2023/12/22 07:12:09;;;;;;;4.93;0.80;;;;;;;;;;4957899;28;20678;-80
2023/12/22 07:14:39;;;;;;;6.35;0.90;;;;;;;;;;5016816;28;20209;-80
2023/12/22 07:17:09;;;;;;;6.03;1.05;;;;;;;;;;5030573;28;20536;-81
2023/12/22 07:19:40;;;;;;;6.20;1.08;;;;;;;;;;5031408;28;20676;-79
2023/12/22 07:22:10;;;;;;;9.85;1.20;;;;;;;;;;5031742;28;20245;-80
2023/12/22 07:24:40;;;;;;;5.45;0.88;;;;;;;;;;5031700;28;20201;-80
2023/12/22 07:27:12;;;;;;;5.18;0.85;;;;;;;;;;5032535;28;20222;-80
2023/12/22 07:29:42;;;;;;;5.97;1.00;;;;;;;;;;5031718;28;20195;-81
2023/12/22 07:32:12;;;;;;;2.22;1.13;;;;;;;;;;5029837;28;20206;-81
2023/12/22 07:34:42;;;;;;;5.15;1.00;;;;;;;;;;5027554;28;20202;-79
2023/12/22 07:37:12;;;;;;;6.78;1.33;;;;;;;;;;5030058;28;20232;-81
2023/12/22 07:39:45;;;;;;;4.00;1.10;;;;;;;;;;5022834;28;20202;-81
2023/12/22 07:42:16;;;;;;;7.15;1.00;;;;;;;;;;5025387;28;20234;-83
2023/12/22 07:44:47;;;;;;;7.65;1.05;;;;;;;;;;5053694;23;20239;-75
2023/12/22 07:47:17;;;;;;;9.23;1.33;;;;;;;;;;5069635;28;20235;-75
2023/12/22 07:49:49;;;;;;;9.73;1.02;;;;;;;;;;5069986;28;20201;-75
2023/12/22 07:52:19;;;;;;;5.28;1.10;;;;;;;;;;5073833;28;20193;-78
2023/12/22 07:54:50;;;;;;;6.30;1.10;;;;;;;;;;5071825;28;20679;-77
2023/12/22 07:57:22;;;;;;;6.60;1.42;;;;;;;;;;5067709;28;20201;-74
2023/12/22 07:59:52;;;;;;;9.00;1.35;;;;;;;;;;5073598;28;20220;-78
2023/12/22 08:02:22;;;;;;;7.35;1.13;;;;;;;;;;5070695;28;20193;-77
2023/12/22 08:04:53;;;;;;;5.05;1.05;;;;;;;;;;5065065;28;20200;-76
2023/12/22 08:07:23;;;;;;;5.43;1.20;;;;;;;;;;5070847;28;20231;-77
2023/12/22 08:09:53;;;;;;;6.45;1.20;;;;;;;;;;5074642;28;20196;-75
2023/12/22 08:12:26;;;;;;;7.30;1.20;;;;;;;;;;5072944;28;20198;-75
2023/12/22 08:14:56;;;;;;;10.73;1.75;;;;;;;;;;5073996;28;20619;-75
2023/12/22 08:17:26;;;;;;;10.45;1.50;;;;;;;;;;5064946;28;20549;-76
2023/12/22 08:19:56;;;;;;;8.35;1.48;;;;;;;;;;5068459;28;20204;-75
2023/12/22 08:22:26;;;;;;;5.47;1.10;;;;;;;;;;5068780;28;20198;-74
2023/12/22 08:24:57;;;;;;;7.53;1.20;;;;;;;;;;5073748;28;20205;-77
2023/12/22 08:27:29;;;;;;;10.77;1.38;;;;;;;;;;5070050;28;20224;-80
2023/12/22 08:29:59;;;;;;;4.28;1.20;;;;;;;;;;5072024;28;20204;-78
2023/12/22 08:32:29;;;;;;;9.43;1.38;;;;;;;;;;5069705;28;20640;-78
2023/12/22 08:34:59;;;;;;;7.90;1.67;;;;;;;;;;5070438;28;20217;-78
2023/12/22 08:37:29;;;;;;;5.38;1.08;;;;;;;;;;5074832;28;20226;-77
2023/12/22 08:40:00;;;;;;;4.15;1.20;;;;;;;;;;5069020;28;20201;-78
2023/12/22 08:42:32;;;;;;;9.43;1.60;;;;;;;;;;5073815;28;20200;-77
2023/12/22 08:45:04;;;;;;;8.27;1.42;;;;;;;;;;5078022;28;20244;-78
2023/12/22 08:47:35;;;;;;;8.88;1.50;;;;;;;;;;5074507;28;20226;-79
2023/12/22 08:50:07;;;;;;;8.25;2.00;;;;;;;;;;5073687;28;20298;-78
2023/12/22 08:52:37;;;;;;;5.40;1.27;;;;;;;;;;5084258;28;20655;-77
2023/12/22 08:55:08;;;;;;;8.15;1.40;;;;;;;;;;5067311;28;20201;-76
2023/12/22 08:57:40;;;;;;;9.65;1.60;;;;;;;;;;5071281;28;20671;-77
2023/12/22 09:00:11;;;;;;;7.90;2.17;;;;;;;;;;5071377;28;20197;-77
2023/12/22 09:02:41;;;;;;;7.05;1.48;;;;;;;;;;5069424;28;20690;-77
2023/12/22 09:05:11;;;;;;;8.15;1.33;;;;;;;;;;5069427;28;20250;-79
2023/12/22 09:07:41;;;;;;;5.68;1.33;;;;;;;;;;5072878;28;20224;-79
2023/12/22 09:10:12;;;;;;;7.32;1.17;;;;;;;;;;5081772;28;20197;-79
2023/12/22 09:12:44;;;;;;;6.03;1.38;;;;;;;;;;5071360;28;20199;-79
2023/12/22 09:15:16;;;;;;;8.13;1.05;;;;;;;;;;5081551;28;20193;-78
2023/12/22 09:17:46;;;;;;;4.28;1.30;;;;;;;;;;5077757;28;20197;-79
2023/12/22 09:20:16;;;;;;;7.40;1.65;;;;;;;;;;5079078;28;20200;-77
2023/12/22 09:22:46;;;;;;;6.20;1.20;;;;;;;;;;5078946;28;20204;-79
2023/12/22 09:25:16;;;;;;;5.28;1.23;;;;;;;;;;5077871;28;20568;-78
2023/12/22 09:27:48;;;;;;;6.65;1.40;;;;;;;;;;5082063;28;20219;-79
2023/12/22 09:30:19;;;;;;;6.32;1.10;;;;;;;;;;5073891;28;20203;-78
2023/12/22 09:32:49;;;;;;;7.30;1.10;;;;;;;;;;5073430;28;20211;-79
2023/12/22 09:35:19;;;;;;;4.57;0.75;;;;;;;;;;5083409;28;20196;-79
2023/12/22 09:37:49;;;;;;;10.95;2.05;;;;;;;;;;5076352;28;20338;-78
2023/12/22 09:40:21;;;;;;;5.18;1.05;;;;;;;;;;5070781;28;20189;-78
2023/12/22 09:42:57;;;;;;;5.68;1.25;;;;;;;;;;5072662;28;20181;-80
2023/12/22 09:45:27;;;;;;;7.65;1.55;;;;;;;;;;5073771;28;20710;-79
2023/12/22 09:47:58;;;;;;;4.45;0.93;;;;;;;;;;5076131;28;20252;-78
2023/12/22 09:50:29;;;;;;;6.38;1.50;;;;;;;;;;5077466;28;20193;-79
2023/12/22 09:53:00;;;;;;;5.35;1.35;;;;;;;;;;5084162;28;20201;-80
2023/12/22 09:55:30;;;;;;;9.75;1.30;;;;;;;;;;5076550;28;20201;-80
2023/12/22 09:58:04;;;;;;;8.00;1.15;;;;;;;;;;5071914;28;20219;-77
2023/12/22 10:00:34;;;;;;;8.70;1.15;;;;;;;;;;5070777;28;20192;-78
2023/12/22 10:03:05;;;;;;;7.15;1.20;;;;;;;;;;5078385;28;20208;-80
2023/12/22 10:05:35;;;;;;;9.05;1.20;;;;;;;;;;5081357;28;20200;-80
2023/12/22 10:08:06;;;;;;;7.00;1.38;;;;;;;;;;5080475;28;20572;-80
2023/12/22 10:10:36;;;;;;;7.15;1.08;;;;;;;;;;5089995;28;20274;-77
2023/12/22 10:13:09;;;;;;;9.32;1.35;;;;;;;;;;5091132;28;20279;-80
2023/12/22 10:15:42;;;;;;;4.78;1.20;;;;;;;;;;5091951;28;20188;-80
2023/12/22 10:18:13;;;;;;;5.93;1.05;;;;;;;;;;5071726;28;20195;-77
2023/12/22 10:20:43;;;;;;;4.88;1.27;;;;;;;;;;5085848;28;20553;-80
2023/12/22 10:23:13;;;;;;;6.32;1.17;;;;;;;;;;5092223;28;20733;-80
2023/12/22 10:25:44;;;;;;;7.88;1.38;;;;;;;;;;5085338;28;20648;-80
2023/12/22 10:28:16;;;;;;;6.20;1.15;;;;;;;;;;5084413;28;20196;-77
2023/12/22 10:30:48;;;;;;;5.47;1.00;;;;;;;;;;5090557;28;20189;-77
2023/12/22 10:33:18;;;;;;;7.95;1.25;;;;;;;;;;5076804;28;20219;-78
2023/12/22 10:35:49;;;;;;;9.05;1.40;;;;;;;;;;5088563;28;20551;-80
2023/12/22 10:38:22;;;;;;;5.45;1.08;;;;;;;;;;5084751;28;20189;-80
2023/12/22 10:40:53;;;;;;;10.20;1.58;;;;;;;;;;5072300;28;20217;-78
2023/12/22 10:43:25;;;;;;;7.15;1.25;;;;;;;;;;5075275;28;20203;-80
2023/12/22 10:45:55;;;;;;;5.50;1.25;;;;;;;;;;5079454;28;20308;-79
2023/12/22 10:48:25;;;;;;;7.93;1.40;;;;;;;;;;5076137;28;20635;-80
2023/12/22 10:50:56;;;;;;;9.00;1.17;;;;;;;;;;5088285;28;20915;-80
2023/12/22 10:53:26;;;;;;;8.25;1.33;;;;;;;;;;5083054;28;20200;-78
2023/12/22 10:55:56;;;;;;;13.20;1.33;;;;;;;;;;5073464;28;20214;-79
2023/12/22 10:58:29;;;;;;;10.20;1.45;;;;;;;;;;5082792;28;20193;-79
2023/12/22 11:00:59;;;;;;;10.48;1.42;;;;;;;;;;5071197;28;20207;-78
2023/12/22 11:03:30;;;;;;;7.72;1.52;;;;;;;;;;5074902;28;20204;-79
2023/12/22 11:06:01;;;;;;;11.18;1.20;;;;;;;;;;5075325;28;20283;-78
2023/12/22 11:08:31;;;;;;;7.18;0.85;;;;;;;;;;5071022;28;20261;-79
2023/12/22 11:11:02;;;;;;;10.63;1.35;;;;;;;;;;5072129;28;20201;-79
2023/12/22 11:13:35;;;;;;;7.05;1.23;;;;;;;;;;5085120;28;20192;-80
2023/12/22 11:16:06;;;;;;;10.73;1.50;;;;;;;;;;5092599;28;20189;-78
2023/12/22 11:18:37;;;;;;;9.55;1.40;;;;;;;;;;5078159;28;20201;-79
2023/12/22 11:21:09;;;;;;;7.80;1.20;;;;;;;;;;5073521;28;20250;-80
2023/12/22 11:23:39;;;;;;;9.05;1.52;;;;;;;;;;5090908;28;20189;-80
2023/12/22 11:26:11;;;;;;;7.75;1.23;;;;;;;;;;5096479;28;20204;-81
2023/12/22 11:28:44;;;;;;;10.63;1.80;;;;;;;;;;5089629;28;20340;-80
2023/12/22 11:31:14;;;;;;;7.63;1.10;;;;;;;;;;5082641;28;20191;-80
2023/12/22 11:33:46;;;;;;;9.23;1.67;;;;;;;;;;5081588;28;20242;-79
2023/12/22 11:36:17;;;;;;;10.70;1.45;;;;;;;;;;5078488;28;20188;-79
2023/12/22 11:38:48;;;;;;;6.85;1.20;;;;;;;;;;5096258;28;20536;-79
2023/12/22 11:41:21;;;;;;;10.25;1.50;;;;;;;;;;5095566;28;20253;-80
2023/12/22 11:43:54;;;;;;;8.57;1.10;;;;;;;;;;5092398;28;20275;-81
2023/12/22 11:46:24;;;;;;;8.30;1.35;;;;;;;;;;5081384;28;20320;-79
2023/12/22 11:48:55;;;;;;;6.28;1.20;;;;;;;;;;5077178;28;20197;-79
2023/12/22 11:51:26;;;;;;;9.63;1.50;;;;;;;;;;5096137;28;20201;-79
2023/12/22 11:53:56;;;;;;;5.95;1.10;;;;;;;;;;5096176;28;20275;-79
2023/12/22 11:56:27;;;;;;;11.23;2.10;;;;;;;;;;5095770;28;20200;-80
2023/12/22 11:59:00;;;;;;;10.10;1.33;;;;;;;;;;5095640;28;20207;-80
2023/12/22 12:01:31;;;;;;;5.65;0.93;;;;;;;;;;5077263;28;20205;-79
2023/12/22 12:04:01;;;;;;;7.22;1.13;;;;;;;;;;5090794;28;20207;-79
2023/12/22 12:06:36;;;;;;;6.47;1.10;;;;;;;;;;5086415;28;20563;-79
2023/12/22 12:09:08;;;;;;;7.07;1.33;;;;;;;;;;5073751;28;20211;-78
2023/12/22 12:11:58;;;;;;;8.27;1.20;;;;;;;;;;5075624;28;20205;-80
2023/12/22 12:14:32;;;;;;;9.95;1.20;;;;;;;;;;5075676;28;20190;-79
2023/12/22 12:17:09;;;;;;;6.93;1.00;;;;;;;;;;5075730;28;20560;-77
2023/12/22 12:19:41;;;;;;;11.25;1.95;;;;;;;;;;5075427;28;20216;-80
2023/12/22 12:22:11;;;;;;;9.00;1.17;;;;;;;;;;5075649;28;20193;-78
2023/12/22 12:24:41;;;;;;;5.80;1.10;;;;;;;;;;5075484;28;20215;-80
2023/12/22 12:27:11;;;;;;;4.65;1.20;;;;;;;;;;5080276;28;20403;-80
2023/12/22 12:29:43;;;;;;;8.57;0.98;;;;;;;;;;5095272;28;20204;-80
2023/12/22 12:32:17;;;;;;;7.70;1.27;;;;;;;;;;5091293;28;20189;-79
2023/12/22 12:34:46;;;;;;;7.32;1.40;;;;;;;;;;5094605;28;20649;-79
2023/12/22 12:37:16;;;;;;;6.38;1.17;;;;;;;;;;5082925;28;20204;-79
2023/12/22 12:39:47;;;;;;;9.52;1.20;;;;;;;;;;5081581;28;20216;-80
2023/12/22 12:42:18;;;;;;;6.13;1.20;;;;;;;;;;5079664;28;20192;-80
2023/12/22 12:44:50;;;;;;;9.57;1.10;;;;;;;;;;5080656;28;20634;-79
2023/12/22 12:47:20;;;;;;;8.27;1.30;;;;;;;;;;5084431;28;20213;-80
2023/12/22 12:49:50;;;;;;;9.45;1.30;;;;;;;;;;5074589;28;20204;-80
2023/12/22 12:52:20;;;;;;;7.70;1.10;;;;;;;;;;5074632;28;20272;-76
2023/12/22 12:54:50;;;;;;;5.85;0.93;;;;;;;;;;5074677;28;20207;-77
2023/12/22 12:57:21;;;;;;;5.82;0.82;;;;;;;;;;5074152;28;20196;-76
2023/12/22 12:59:53;;;;;;;9.57;1.50;;;;;;;;;;5074657;28;20193;-76
2023/12/22 13:02:23;;;;;;;9.73;1.10;;;;;;;;;;5074042;28;20559;-76
2023/12/22 13:04:53;;;;;;;10.50;2.65;;;;;;;;;;5072313;28;20216;-76
2023/12/22 13:07:30;;;;;;;10.27;1.75;;;;;;;;;;5073327;28;20221;-78
2023/12/22 13:10:00;;;;;;;10.60;2.42;;;;;;;;;;5074618;28;20189;-76
2023/12/22 13:12:30;;;;;;;8.48;1.90;;;;;;;;;;5074108;28;20200;-76
2023/12/22 13:15:05;;;;;;;9.23;1.50;;;;;;;;;;5073780;28;20208;-76
2023/12/22 13:17:35;;;;;;;11.43;1.42;;;;;;;;;;5074151;28;20189;-78
2023/12/22 13:20:05;;;;;;;8.23;1.50;;;;;;;;;;5074003;28;20200;-76
2023/12/22 13:22:35;;;;;;;7.22;1.65;;;;;;;;;;5077076;28;20189;-77
2023/12/22 13:25:05;;;;;;;6.78;1.70;;;;;;;;;;5092852;28;20192;-79
2023/12/22 13:27:35;;;;;;;9.30;1.25;;;;;;;;;;5082455;28;20224;-77
2023/12/22 13:30:07;;;;;;;7.65;1.75;;;;;;;;;;5089628;28;20283;-77
2023/12/22 13:32:37;;;;;;;10.25;1.85;;;;;;;;;;5092670;28;20544;-79
2023/12/22 13:35:08;;;;;;;7.43;1.30;;;;;;;;;;5074656;28;20192;-76
2023/12/22 13:37:43;;;;;;;6.47;1.75;;;;;;;;;;5094078;28;20315;-78
2023/12/22 13:40:13;;;;;;;12.13;1.77;;;;;;;;;;5088790;28;20223;-79
2023/12/22 13:42:44;;;;;;;7.70;1.63;;;;;;;;;;5093050;28;20196;-77
2023/12/22 13:45:16;;;;;;;7.30;1.30;;;;;;;;;;5084724;23;20300;-78
2023/12/22 13:47:47;;;;;;;9.15;1.60;;;;;;;;;;5029962;28;20685;-80
2023/12/22 13:50:18;;;;;;;9.32;1.80;;;;;;;;;;5033542;28;20236;-78
2023/12/22 13:52:50;;;;;;;10.38;1.60;;;;;;;;;;5033462;28;20256;-77
2023/12/22 13:55:22;;;;;;;9.23;1.67;;;;;;;;;;5032889;28;20273;-77
2023/12/22 13:57:52;;;;;;;9.20;1.90;;;;;;;;;;5033702;28;20198;-77
2023/12/22 14:00:32;;;;;;;9.25;1.30;;;;;;;;;;5031296;28;20201;-80
2023/12/22 14:03:04;;;;;;;9.93;1.60;;;;;;;;;;5032401;28;20190;-78
2023/12/22 14:05:34;;;;;;;8.35;1.40;;;;;;;;;;5030089;28;20194;-77
2023/12/22 14:08:04;;;;;;;6.85;1.58;;;;;;;;;;5024421;28;20261;-79
2023/12/22 14:10:34;;;;;;;9.93;1.80;;;;;;;;;;5032697;28;20229;-77
2023/12/22 14:13:04;;;;;;;11.18;1.60;;;;;;;;;;5034394;28;20205;-77
2023/12/22 14:15:36;;;;;;;11.05;1.85;;;;;;;;;;5033500;28;20204;-77
2023/12/22 14:18:06;;;;;;;9.75;1.70;;;;;;;;;;5031417;28;20194;-78
2023/12/22 14:20:36;;;;;;;8.70;1.30;;;;;;;;;;5033783;28;20195;-78
2023/12/22 14:23:06;;;;;;;10.93;1.70;;;;;;;;;;5032332;28;20205;-77
2023/12/22 14:25:36;;;;;;;12.07;1.45;;;;;;;;;;5033688;28;20209;-78
2023/12/22 14:28:06;;;;;;;8.48;1.60;;;;;;;;;;5025497;28;20228;-77
2023/12/22 14:30:38;;;;;;;6.85;1.45;;;;;;;;;;5029478;28;20198;-79
2023/12/22 14:33:08;;;;;;;6.75;1.58;;;;;;;;;;5012939;28;20195;-79
2023/12/22 14:35:39;;;;;;;9.77;1.60;;;;;;;;;;5034137;28;20194;-77
2023/12/22 14:38:09;;;;;;;8.00;1.52;;;;;;;;;;5025381;28;20201;-80
2023/12/22 14:40:39;;;;;;;8.13;1.50;;;;;;;;;;5032535;28;20564;-77
2023/12/22 14:43:09;;;;;;;7.45;1.88;;;;;;;;;;5033239;28;20198;-78
2023/12/22 14:45:41;;;;;;;8.27;1.40;;;;;;;;;;5031109;28;20240;-78
2023/12/22 14:48:11;;;;;;;10.60;1.42;;;;;;;;;;5033531;28;20300;-77
2023/12/22 14:50:41;;;;;;;8.00;1.58;;;;;;;;;;5033183;28;20194;-78
2023/12/22 14:53:11;;;;;;;8.13;1.67;;;;;;;;;;5033411;28;20198;-77
2023/12/22 14:55:40;;;;;;;6.78;1.33;;;;;;;;;;5032108;28;20191;-77
2023/12/22 14:58:10;;;;;;;7.13;1.52;;;;;;;;;;5032396;28;20201;-77
2023/12/22 15:00:42;;;;;;;6.32;1.20;;;;;;;;;;5033117;28;20204;-77
2023/12/22 15:03:12;;;;;;;3.47;1.10;;;;;;;;;;5032113;28;20194;-77